NSZ2616 EFHK-ESSA
Flight info
| Callsign | NSZ2616 |
|---|---|
| Flight time | N/A |
| Altitude | 30000 |
| Route | ADIVO Y365 POGOK DCT RUNGA N872 XILAN |
| Aircraft | B738/M-SDE2E3FGHIRWXY/LB1 |
Departure
| Time | 2026-04-22 18:30 |
|---|---|
| Airport | Helsinki Vantaa Airport (EFHK) |
Arrival
| Time | N/A |
|---|---|
| Airport | Stockholm-Arlanda Airport (ESSA) |
| Time | Latitude | Longitude | Altitude | Speed | Heading |
|---|---|---|---|---|---|
| 2026-04-22 17:51 | 60.31939 | 24.96375 | 160 ft | 0 kts | 137° |
| 2026-04-22 18:21 | 60.31937 | 24.96378 | 160 ft | 1 kts | 137° |
| 2026-04-22 18:22 | 60.31923 | 24.96404 | 160 ft | 0 kts | 137° |
| 2026-04-22 18:22 | 60.31921 | 24.96409 | 160 ft | 1 kts | 137° |
| 2026-04-22 18:22 | 60.31917 | 24.96413 | 160 ft | 1 kts | 144° |
| 2026-04-22 18:22 | 60.31914 | 24.96414 | 160 ft | 1 kts | 168° |
| 2026-04-22 18:23 | 60.31891 | 24.96391 | 160 ft | 8 kts | 216° |
| 2026-04-22 18:23 | 60.31860 | 24.96299 | 160 ft | 8 kts | 251° |
| 2026-04-22 18:23 | 60.31857 | 24.96263 | 160 ft | 1 kts | 261° |
| 2026-04-22 18:24 | 60.31846 | 24.96162 | 160 ft | 7 kts | 239° |
| 2026-04-22 18:24 | 60.31806 | 24.96073 | 160 ft | 10 kts | 227° |
| 2026-04-22 18:24 | 60.31681 | 24.95801 | 160 ft | 15 kts | 227° |
| 2026-04-22 18:25 | 60.31642 | 24.95676 | 160 ft | 12 kts | 272° |
| 2026-04-22 18:25 | 60.31697 | 24.95554 | 160 ft | 12 kts | 314° |
| 2026-04-22 18:25 | 60.31673 | 24.95399 | 160 ft | 13 kts | 230° |
| 2026-04-22 18:26 | 60.31526 | 24.95072 | 160 ft | 18 kts | 228° |
| 2026-04-22 18:26 | 60.31434 | 24.94873 | 160 ft | 20 kts | 227° |
| 2026-04-22 18:26 | 60.31398 | 24.94792 | 160 ft | 6 kts | 228° |
| 2026-04-22 18:26 | 60.31360 | 24.94711 | 160 ft | 10 kts | 226° |
| 2026-04-22 18:27 | 60.31307 | 24.94598 | 160 ft | 12 kts | 227° |
| 2026-04-22 18:27 | 60.31244 | 24.94454 | 160 ft | 15 kts | 229° |
| 2026-04-22 18:27 | 60.31168 | 24.94286 | 160 ft | 17 kts | 227° |
| 2026-04-22 18:27 | 60.31082 | 24.94093 | 160 ft | 19 kts | 228° |
| 2026-04-22 18:28 | 60.31030 | 24.93910 | 160 ft | 15 kts | 276° |
| 2026-04-22 18:28 | 60.31090 | 24.93742 | 160 ft | 16 kts | 320° |
| 2026-04-22 18:28 | 60.31188 | 24.93763 | 161 ft | 10 kts | 47° |
| 2026-04-22 18:28 | 60.31191 | 24.93769 | 161 ft | 0 kts | 47° |
| 2026-04-22 18:29 | 60.31216 | 24.93822 | 161 ft | 17 kts | 47° |
| 2026-04-22 18:30 | 60.31437 | 24.94307 | 162 ft | 90 kts | 47° |
| 2026-04-22 18:30 | 60.32802 | 24.97284 | 1208 ft | 159 kts | 37° |
| 2026-04-22 18:30 | 60.33559 | 24.98904 | 2370 ft | 152 kts | 35° |
| 2026-04-22 18:31 | 60.34220 | 25.00358 | 3463 ft | 135 kts | 36° |
| 2026-04-22 18:31 | 60.34880 | 25.01830 | 3917 ft | 145 kts | 37° |
| 2026-04-22 18:31 | 60.35605 | 25.03435 | 4227 ft | 168 kts | 38° |
| 2026-04-22 18:31 | 60.36446 | 25.05292 | 4432 ft | 189 kts | 39° |
| 2026-04-22 18:32 | 60.37379 | 25.07357 | 4643 ft | 208 kts | 40° |
| 2026-04-22 18:32 | 60.38372 | 25.09564 | 5028 ft | 215 kts | 40° |
| 2026-04-22 18:32 | 60.39428 | 25.11710 | 5469 ft | 214 kts | 28° |
| 2026-04-22 18:32 | 60.40781 | 25.12748 | 5973 ft | 208 kts | 9° |
| 2026-04-22 18:33 | 60.42222 | 25.12988 | 6454 ft | 208 kts | 360° |
| 2026-04-22 18:33 | 60.43665 | 25.12997 | 6985 ft | 207 kts | 356° |
| 2026-04-22 18:33 | 60.45017 | 25.12028 | 7488 ft | 214 kts | 327° |
| 2026-04-22 18:33 | 60.46022 | 25.09789 | 8071 ft | 223 kts | 310° |
| 2026-04-22 18:34 | 60.46599 | 25.06626 | 8269 ft | 258 kts | 287° |
| 2026-04-22 18:34 | 60.46477 | 25.02822 | 8818 ft | 282 kts | 268° |
| 2026-04-22 18:34 | 60.45934 | 24.98923 | 9527 ft | 291 kts | 264° |
| 2026-04-22 18:34 | 60.45309 | 24.94988 | 10092 ft | 300 kts | 263° |
| 2026-04-22 18:35 | 60.44643 | 24.90820 | 10241 ft | 322 kts | 263° |
| 2026-04-22 18:35 | 60.43932 | 24.86357 | 10444 ft | 342 kts | 262° |
| 2026-04-22 18:35 | 60.43185 | 24.81687 | 10877 ft | 352 kts | 262° |
| 2026-04-22 18:35 | 60.42425 | 24.76940 | 11508 ft | 357 kts | 262° |
| 2026-04-22 18:36 | 60.41658 | 24.72140 | 12177 ft | 360 kts | 262° |
| 2026-04-22 18:36 | 60.40887 | 24.67287 | 12832 ft | 364 kts | 263° |
| 2026-04-22 18:36 | 60.40108 | 24.62365 | 13502 ft | 369 kts | 263° |
| 2026-04-22 18:36 | 60.39332 | 24.57459 | 14112 ft | 373 kts | 263° |
| 2026-04-22 18:37 | 60.38528 | 24.52385 | 14799 ft | 375 kts | 263° |
| 2026-04-22 18:37 | 60.37729 | 24.47351 | 15465 ft | 378 kts | 264° |
| 2026-04-22 18:37 | 60.37194 | 24.43981 | 15888 ft | 381 kts | 264° |
| 2026-04-22 18:37 | 60.36112 | 24.37185 | 16744 ft | 386 kts | 264° |
| 2026-04-22 18:38 | 60.35284 | 24.32010 | 17409 ft | 389 kts | 264° |
| 2026-04-22 18:38 | 60.34816 | 24.29086 | 17760 ft | 391 kts | 265° |
| 2026-04-22 18:38 | 60.34591 | 24.27682 | 17931 ft | 392 kts | 265° |